sensor_id;sensor_type;location;lat;lon;timestamp;pressure;altitude;pressure_sealevel;temperature;humidity
21742;BME280;11033;47.490;11.116;2023-02-18T00:01:02;94040.41;;;5.49;77.37
21742;BME280;11033;47.490;11.116;2023-02-18T00:03:32;94035.06;;;5.41;79.19
21742;BME280;11033;47.490;11.116;2023-02-18T00:05:57;94040.28;;;5.60;78.17
21742;BME280;11033;47.490;11.116;2023-02-18T00:08:23;94036.97;;;5.49;78.22
21742;BME280;11033;47.490;11.116;2023-02-18T00:10:48;94032.72;;;5.48;78.09
21742;BME280;11033;47.490;11.116;2023-02-18T00:13:13;94022.69;;;5.43;79.36
21742;BME280;11033;47.490;11.116;2023-02-18T00:15:39;94032.56;;;5.49;78.25
21742;BME280;11033;47.490;11.116;2023-02-18T00:18:04;94029.13;;;5.58;78.75
21742;BME280;11033;47.490;11.116;2023-02-18T00:20:30;94018.69;;;5.58;78.25
21742;BME280;11033;47.490;11.116;2023-02-18T00:22:58;94022.66;;;5.62;77.89
21742;BME280;11033;47.490;11.116;2023-02-18T00:25:23;94022.13;;;5.68;76.93
21742;BME280;11033;47.490;11.116;2023-02-18T00:27:48;94019.66;;;5.57;77.74
21742;BME280;11033;47.490;11.116;2023-02-18T00:30:13;94032.84;;;5.65;77.22
21742;BME280;11033;47.490;11.116;2023-02-18T00:32:39;94025.13;;;5.73;76.40
21742;BME280;11033;47.490;11.116;2023-02-18T00:35:04;94025.16;;;5.64;76.88
21742;BME280;11033;47.490;11.116;2023-02-18T00:37:30;94037.38;;;5.63;78.51
21742;BME280;11033;47.490;11.116;2023-02-18T00:39:55;94025.28;;;5.62;77.67
21742;BME280;11033;47.490;11.116;2023-02-18T00:42:20;94020.06;;;5.62;77.34
21742;BME280;11033;47.490;11.116;2023-02-18T00:44:45;94027.06;;;5.52;78.92
21742;BME280;11033;47.490;11.116;2023-02-18T00:47:11;94021.56;;;5.55;78.94
21742;BME280;11033;47.490;11.116;2023-02-18T00:49:36;94018.97;;;5.55;78.74
21742;BME280;11033;47.490;11.116;2023-02-18T00:52:02;94019.50;;;5.49;78.19
21742;BME280;11033;47.490;11.116;2023-02-18T00:54:27;94024.59;;;5.51;79.22
21742;BME280;11033;47.490;11.116;2023-02-18T00:56:52;94016.75;;;5.51;77.79
21742;BME280;11033;47.490;11.116;2023-02-18T00:59:18;94022.13;;;5.68;79.53
21742;BME280;11033;47.490;11.116;2023-02-18T01:01:43;94004.78;;;5.67;78.50
21742;BME280;11033;47.490;11.116;2023-02-18T01:04:08;94019.50;;;5.68;76.61
21742;BME280;11033;47.490;11.116;2023-02-18T01:06:34;94008.38;;;5.66;76.75
21742;BME280;11033;47.490;11.116;2023-02-18T01:08:59;94015.78;;;5.61;77.85
21742;BME280;11033;47.490;11.116;2023-02-18T01:11:24;93998.72;;;5.67;77.76
21742;BME280;11033;47.490;11.116;2023-02-18T01:13:50;94002.88;;;5.60;77.03
21742;BME280;11033;47.490;11.116;2023-02-18T01:16:16;94000.94;;;5.52;78.46
21742;BME280;11033;47.490;11.116;2023-02-18T01:18:42;94002.88;;;5.50;78.29
21742;BME280;11033;47.490;11.116;2023-02-18T01:21:07;93985.28;;;5.52;77.76
21742;BME280;11033;47.490;11.116;2023-02-18T01:23:34;93975.34;;;5.65;78.54
21742;BME280;11033;47.490;11.116;2023-02-18T01:25:59;93992.41;;;5.60;77.94
21742;BME280;11033;47.490;11.116;2023-02-18T01:28:25;93990.78;;;5.30;78.90
21742;BME280;11033;47.490;11.116;2023-02-18T01:30:51;93975.38;;;5.36;78.03
21742;BME280;11033;47.490;11.116;2023-02-18T01:33:18;93975.53;;;5.35;78.36
21742;BME280;11033;47.490;11.116;2023-02-18T01:35:43;93974.69;;;5.25;78.74
21742;BME280;11033;47.490;11.116;2023-02-18T01:38:09;93968.66;;;5.34;77.61
21742;BME280;11033;47.490;11.116;2023-02-18T01:40:34;93954.75;;;5.33;76.76
21742;BME280;11033;47.490;11.116;2023-02-18T01:43:00;93967.41;;;5.28;78.34
21742;BME280;11033;47.490;11.116;2023-02-18T01:48:12;93955.72;;;5.23;78.34
21742;BME280;11033;47.490;11.116;2023-02-18T01:50:42;93959.72;;;5.27;78.41
21742;BME280;11033;47.490;11.116;2023-02-18T01:53:09;93955.69;;;5.03;80.09
21742;BME280;11033;47.490;11.116;2023-02-18T01:55:35;93961.63;;;5.15;79.41
21742;BME280;11033;47.490;11.116;2023-02-18T01:58:02;93960.94;;;5.13;79.90
21742;BME280;11033;47.490;11.116;2023-02-18T02:00:28;93953.63;;;5.17;78.86
21742;BME280;11033;47.490;11.116;2023-02-18T02:02:53;93954.34;;;5.28;77.22
21742;BME280;11033;47.490;11.116;2023-02-18T02:05:20;93950.22;;;5.26;77.79
21742;BME280;11033;47.490;11.116;2023-02-18T02:07:49;93944.03;;;5.17;77.75
21742;BME280;11033;47.490;11.116;2023-02-18T02:10:16;93952.00;;;5.16;78.02
21742;BME280;11033;47.490;11.116;2023-02-18T02:13:04;93951.72;;;5.09;80.54
21742;BME280;11033;47.490;11.116;2023-02-18T02:24:15;93938.53;;;5.10;79.63
21742;BME280;11033;47.490;11.116;2023-02-18T02:27:11;93942.09;;;5.09;79.82
21742;BME280;11033;47.490;11.116;2023-02-18T02:35:03;93940.44;;;5.08;80.52
21742;BME280;11033;47.490;11.116;2023-02-18T02:37:44;93939.63;;;5.18;78.44
21742;BME280;11033;47.490;11.116;2023-02-18T02:40:16;93943.88;;;5.19;78.48
21742;BME280;11033;47.490;11.116;2023-02-18T02:51:32;93936.31;;;5.16;79.59
21742;BME280;11033;47.490;11.116;2023-02-18T02:54:17;93933.75;;;5.25;80.19
21742;BME280;11033;47.490;11.116;2023-02-18T02:56:43;93941.56;;;5.16;78.42
21742;BME280;11033;47.490;11.116;2023-02-18T02:59:17;93940.72;;;5.15;79.72
21742;BME280;11033;47.490;11.116;2023-02-18T03:12:27;93916.13;;;5.18;78.70
21742;BME280;11033;47.490;11.116;2023-02-18T03:15:19;93920.94;;;5.03;78.68
21742;BME280;11033;47.490;11.116;2023-02-18T03:20:50;93924.25;;;4.95;79.46
21742;BME280;11033;47.490;11.116;2023-02-18T03:23:24;93918.19;;;4.85;79.90
21742;BME280;11033;47.490;11.116;2023-02-18T03:25:51;93922.59;;;4.94;78.60
21742;BME280;11033;47.490;11.116;2023-02-18T03:28:19;93913.94;;;4.84;79.17
21742;BME280;11033;47.490;11.116;2023-02-18T03:30:49;93916.25;;;4.87;79.53
21742;BME280;11033;47.490;11.116;2023-02-18T03:33:36;93922.97;;;4.70;79.97
21742;BME280;11033;47.490;11.116;2023-02-18T03:36:05;93910.75;;;4.71;80.20
21742;BME280;11033;47.490;11.116;2023-02-18T03:38:35;93902.53;;;4.75;78.45
21742;BME280;11033;47.490;11.116;2023-02-18T03:41:03;93908.84;;;4.73;79.68
21742;BME280;11033;47.490;11.116;2023-02-18T03:43:29;93912.97;;;4.66;81.68
21742;BME280;11033;47.490;11.116;2023-02-18T03:45:54;93902.53;;;4.66;79.84
21742;BME280;11033;47.490;11.116;2023-02-18T03:48:20;93906.91;;;4.75;78.60
21742;BME280;11033;47.490;11.116;2023-02-18T03:50:45;93906.91;;;4.75;80.99
21742;BME280;11033;47.490;11.116;2023-02-18T03:53:10;93906.22;;;4.73;79.10
21742;BME280;11033;47.490;11.116;2023-02-18T03:55:35;93911.84;;;4.68;78.66
21742;BME280;11033;47.490;11.116;2023-02-18T03:58:01;93905.53;;;4.71;79.70
21742;BME280;11033;47.490;11.116;2023-02-18T04:00:26;93899.09;;;4.65;79.56
21742;BME280;11033;47.490;11.116;2023-02-18T04:02:51;93909.94;;;4.61;81.03
21742;BME280;11033;47.490;11.116;2023-02-18T04:05:17;93912.34;;;4.53;80.57
21742;BME280;11033;47.490;11.116;2023-02-18T04:07:42;93901.69;;;4.65;79.84
21742;BME280;11033;47.490;11.116;2023-02-18T04:10:07;93913.44;;;4.50;79.44
21742;BME280;11033;47.490;11.116;2023-02-18T04:12:33;93910.97;;;4.49;79.58
21742;BME280;11033;47.490;11.116;2023-02-18T04:14:58;93907.41;;;4.50;79.92
21742;BME280;11033;47.490;11.116;2023-02-18T04:17:24;93912.22;;;4.44;80.37
21742;BME280;11033;47.490;11.116;2023-02-18T04:19:49;93907.28;;;4.51;80.68
21742;BME280;11033;47.490;11.116;2023-02-18T04:22:14;93917.28;;;4.46;81.28
21742;BME280;11033;47.490;11.116;2023-02-18T04:24:40;93910.69;;;4.42;80.23
21742;BME280;11033;47.490;11.116;2023-02-18T04:27:05;93923.47;;;4.55;80.66
21742;BME280;11033;47.490;11.116;2023-02-18T04:29:30;93920.69;;;4.37;82.73
21742;BME280;11033;47.490;11.116;2023-02-18T04:31:55;93921.66;;;4.36;80.41
21742;BME280;11033;47.490;11.116;2023-02-18T04:34:21;93922.06;;;4.31;82.10
21742;BME280;11033;47.490;11.116;2023-02-18T04:36:46;93925.91;;;4.37;81.13
21742;BME280;11033;47.490;11.116;2023-02-18T04:39:11;93927.13;;;4.23;81.76
21742;BME280;11033;47.490;11.116;2023-02-18T04:41:37;93934.00;;;4.34;81.45
21742;BME280;11033;47.490;11.116;2023-02-18T04:44:02;93916.72;;;4.33;81.63
21742;BME280;11033;47.490;11.116;2023-02-18T04:46:28;93930.72;;;4.41;79.53
21742;BME280;11033;47.490;11.116;2023-02-18T04:48:53;93946.91;;;4.35;79.66
21742;BME280;11033;47.490;11.116;2023-02-18T04:51:18;93946.75;;;4.27;80.40
21742;BME280;11033;47.490;11.116;2023-02-18T04:53:43;93931.47;;;4.13;81.81
21742;BME280;11033;47.490;11.116;2023-02-18T04:56:10;93922.44;;;4.17;81.66
21742;BME280;11033;47.490;11.116;2023-02-18T04:58:35;93931.78;;;4.29;79.96
21742;BME280;11033;47.490;11.116;2023-02-18T05:01:02;93932.06;;;4.26;80.12
21742;BME280;11033;47.490;11.116;2023-02-18T05:03:30;93924.91;;;4.19;81.48
21742;BME280;11033;47.490;11.116;2023-02-18T05:05:56;93923.81;;;4.21;82.09
21742;BME280;11033;47.490;11.116;2023-02-18T05:08:22;93926.59;;;4.29;79.24
21742;BME280;11033;47.490;11.116;2023-02-18T05:10:47;93934.56;;;3.97;82.18
21742;BME280;11033;47.490;11.116;2023-02-18T05:13:12;93928.44;;;4.08;82.05
21742;BME280;11033;47.490;11.116;2023-02-18T05:15:38;93936.41;;;4.16;80.94
21742;BME280;11033;47.490;11.116;2023-02-18T05:18:03;93936.94;;;4.10;81.94
21742;BME280;11033;47.490;11.116;2023-02-18T05:20:29;93936.84;;;4.21;79.00
21742;BME280;11033;47.490;11.116;2023-02-18T05:22:55;93932.84;;;4.17;79.82
21742;BME280;11033;47.490;11.116;2023-02-18T05:25:20;93939.16;;;4.14;81.49
21742;BME280;11033;47.490;11.116;2023-02-18T05:27:46;93934.75;;;4.05;83.28
21742;BME280;11033;47.490;11.116;2023-02-18T05:30:11;93930.47;;;4.04;80.55
21742;BME280;11033;47.490;11.116;2023-02-18T05:32:37;93936.09;;;4.00;82.10
21742;BME280;11033;47.490;11.116;2023-02-18T05:35:02;93939.13;;;4.05;80.38
21742;BME280;11033;47.490;11.116;2023-02-18T05:37:28;93944.88;;;3.99;80.07
21742;BME280;11033;47.490;11.116;2023-02-18T05:39:53;93939.22;;;3.94;81.69
21742;BME280;11033;47.490;11.116;2023-02-18T05:42:18;93922.56;;;3.85;81.96
21742;BME280;11033;47.490;11.116;2023-02-18T05:44:44;93939.00;;;3.86;81.98
21742;BME280;11033;47.490;11.116;2023-02-18T05:47:11;93932.59;;;3.90;81.33
21742;BME280;11033;47.490;11.116;2023-02-18T05:49:38;93929.97;;;3.90;81.05
21742;BME280;11033;47.490;11.116;2023-02-18T05:52:04;93928.28;;;3.79;81.99
21742;BME280;11033;47.490;11.116;2023-02-18T05:54:30;93946.56;;;3.89;81.26
21742;BME280;11033;47.490;11.116;2023-02-18T05:56:55;93937.88;;;3.78;81.02
21742;BME280;11033;47.490;11.116;2023-02-18T05:59:21;93935.03;;;3.81;81.92
21742;BME280;11033;47.490;11.116;2023-02-18T06:01:47;93949.97;;;3.79;82.66
21742;BME280;11033;47.490;11.116;2023-02-18T06:04:13;93944.38;;;3.63;82.71
21742;BME280;11033;47.490;11.116;2023-02-18T06:06:38;93949.09;;;3.69;81.35
21742;BME280;11033;47.490;11.116;2023-02-18T06:09:05;93942.03;;;3.60;83.19
21742;BME280;11033;47.490;11.116;2023-02-18T06:11:30;93949.09;;;3.69;82.42
21742;BME280;11033;47.490;11.116;2023-02-18T06:13:56;93954.41;;;3.68;81.19
21742;BME280;11033;47.490;11.116;2023-02-18T06:16:22;93960.00;;;3.63;82.80
21742;BME280;11033;47.490;11.116;2023-02-18T06:18:47;93946.81;;;3.55;83.64
21742;BME280;11033;47.490;11.116;2023-02-18T06:21:12;93962.22;;;3.68;82.43
21742;BME280;11033;47.490;11.116;2023-02-18T06:23:38;93953.81;;;3.55;82.37
21742;BME280;11033;47.490;11.116;2023-02-18T06:26:03;93944.03;;;3.47;83.39
21742;BME280;11033;47.490;11.116;2023-02-18T06:28:29;93958.31;;;3.53;81.24
21742;BME280;11033;47.490;11.116;2023-02-18T06:30:54;93940.28;;;3.40;82.86
21742;BME280;11033;47.490;11.116;2023-02-18T06:33:19;93942.94;;;3.49;80.85
21742;BME280;11033;47.490;11.116;2023-02-18T06:36:00;93948.19;;;3.59;80.80
21742;BME280;11033;47.490;11.116;2023-02-18T06:38:25;93928.41;;;3.47;81.48
21742;BME280;11033;47.490;11.116;2023-02-18T06:40:51;93933.34;;;3.50;82.35
21742;BME280;11033;47.490;11.116;2023-02-18T06:43:17;93924.59;;;3.51;82.36
21742;BME280;11033;47.490;11.116;2023-02-18T06:45:42;93922.22;;;3.48;81.57
21742;BME280;11033;47.490;11.116;2023-02-18T06:48:08;93929.72;;;3.41;83.38
21742;BME280;11033;47.490;11.116;2023-02-18T06:50:34;93926.22;;;3.52;82.45
21742;BME280;11033;47.490;11.116;2023-02-18T06:52:59;93928.84;;;3.52;82.80
21742;BME280;11033;47.490;11.116;2023-02-18T06:55:24;93934.91;;;3.62;81.37
21742;BME280;11033;47.490;11.116;2023-02-18T06:57:50;93932.56;;;3.59;82.20
21742;BME280;11033;47.490;11.116;2023-02-18T07:00:16;93942.78;;;3.72;81.56
21742;BME280;11033;47.490;11.116;2023-02-18T07:02:41;93930.75;;;3.80;80.50
21742;BME280;11033;47.490;11.116;2023-02-18T07:05:07;93946.41;;;3.80;81.97
21742;BME280;11033;47.490;11.116;2023-02-18T07:07:32;93932.16;;;3.85;82.12
21742;BME280;11033;47.490;11.116;2023-02-18T07:09:57;93929.09;;;4.00;80.95
21742;BME280;11033;47.490;11.116;2023-02-18T07:12:23;93938.31;;;4.04;80.27
21742;BME280;11033;47.490;11.116;2023-02-18T07:14:48;93940.50;;;4.09;80.81
21742;BME280;11033;47.490;11.116;2023-02-18T07:17:13;93931.47;;;4.13;81.97
21742;BME280;11033;47.490;11.116;2023-02-18T07:19:39;93923.84;;;4.31;80.49
21742;BME280;11033;47.490;11.116;2023-02-18T07:22:04;93921.00;;;4.43;81.36
21742;BME280;11033;47.490;11.116;2023-02-18T07:24:30;93925.94;;;4.46;81.78
21742;BME280;11033;47.490;11.116;2023-02-18T07:26:55;93927.50;;;4.59;80.81
21742;BME280;11033;47.490;11.116;2023-02-18T07:29:20;93917.47;;;4.64;79.82
21742;BME280;11033;47.490;11.116;2023-02-18T07:31:46;93922.28;;;4.68;79.58
21742;BME280;11033;47.490;11.116;2023-02-18T07:34:11;93914.06;;;4.83;79.52
21742;BME280;11033;47.490;11.116;2023-02-18T07:36:36;93910.22;;;4.87;79.66
21742;BME280;11033;47.490;11.116;2023-02-18T07:39:02;93911.06;;;4.97;79.68
21742;BME280;11033;47.490;11.116;2023-02-18T07:41:27;93911.88;;;5.07;78.88
21742;BME280;11033;47.490;11.116;2023-02-18T07:43:53;93897.56;;;5.11;78.63
21742;BME280;11033;47.490;11.116;2023-02-18T07:46:18;93902.78;;;5.11;78.14
21742;BME280;11033;47.490;11.116;2023-02-18T07:48:43;93899.25;;;5.22;78.50
21742;BME280;11033;47.490;11.116;2023-02-18T07:51:10;93893.31;;;5.29;78.75
21742;BME280;11033;47.490;11.116;2023-02-18T07:53:37;93900.75;;;5.34;77.69
21742;BME280;11033;47.490;11.116;2023-02-18T07:56:03;93905.69;;;5.37;77.41
21742;BME280;11033;47.490;11.116;2023-02-18T07:58:34;93888.47;;;5.44;77.36
21742;BME280;11033;47.490;11.116;2023-02-18T08:01:06;93905.66;;;5.47;77.75
21742;BME280;11033;47.490;11.116;2023-02-18T08:03:32;93899.19;;;5.51;77.62
21742;BME280;11033;47.490;11.116;2023-02-18T08:05:59;93897.81;;;5.56;78.19
21742;BME280;11033;47.490;11.116;2023-02-18T08:08:27;93887.75;;;5.61;78.13
21742;BME280;11033;47.490;11.116;2023-02-18T08:10:54;93907.56;;;5.64;78.06
21742;BME280;11033;47.490;11.116;2023-02-18T08:13:20;93899.97;;;5.70;77.22
21742;BME280;11033;47.490;11.116;2023-02-18T08:15:45;93892.91;;;5.81;76.63
21742;BME280;11033;47.490;11.116;2023-02-18T08:18:16;93889.75;;;5.87;76.18
21742;BME280;11033;47.490;11.116;2023-02-18T08:20:41;93901.19;;;5.95;77.09
21742;BME280;11033;47.490;11.116;2023-02-18T08:23:07;93893.88;;;5.99;77.21
21742;BME280;11033;47.490;11.116;2023-02-18T08:25:32;93907.06;;;6.07;75.90
21742;BME280;11033;47.490;11.116;2023-02-18T08:27:58;93899.31;;;6.15;76.27
21742;BME280;11033;47.490;11.116;2023-02-18T08:30:24;93899.25;;;6.25;74.96
21742;BME280;11033;47.490;11.116;2023-02-18T08:32:50;93892.34;;;6.33;75.00
21742;BME280;11033;47.490;11.116;2023-02-18T08:35:15;93887.56;;;6.47;74.64
21742;BME280;11033;47.490;11.116;2023-02-18T08:37:41;93896.59;;;6.62;75.00
21742;BME280;11033;47.490;11.116;2023-02-18T08:40:07;93882.78;;;6.70;74.16
21742;BME280;11033;47.490;11.116;2023-02-18T08:42:33;93894.28;;;6.77;74.01
21742;BME280;11033;47.490;11.116;2023-02-18T08:44:58;93888.38;;;6.92;74.07
21742;BME280;11033;47.490;11.116;2023-02-18T08:47:23;93886.88;;;7.08;74.21
21742;BME280;11033;47.490;11.116;2023-02-18T08:49:49;93887.06;;;7.24;73.98
21742;BME280;11033;47.490;11.116;2023-02-18T08:52:14;93879.56;;;7.29;73.10
21742;BME280;11033;47.490;11.116;2023-02-18T08:54:40;93887.59;;;7.53;73.64
21742;BME280;11033;47.490;11.116;2023-02-18T08:57:05;93893.88;;;7.60;72.70
21742;BME280;11033;47.490;11.116;2023-02-18T08:59:30;93880.84;;;7.77;72.65
21742;BME280;11033;47.490;11.116;2023-02-18T09:01:56;93895.28;;;7.99;71.83
21742;BME280;11033;47.490;11.116;2023-02-18T09:04:21;93882.75;;;8.18;71.07
21742;BME280;11033;47.490;11.116;2023-02-18T09:06:47;93871.00;;;8.31;70.49
21742;BME280;11033;47.490;11.116;2023-02-18T09:09:14;93876.75;;;8.68;69.73
21742;BME280;11033;47.490;11.116;2023-02-18T09:11:40;93864.59;;;8.75;69.92
21742;BME280;11033;47.490;11.116;2023-02-18T09:14:05;93863.66;;;9.01;69.03
21742;BME280;11033;47.490;11.116;2023-02-18T09:16:30;93852.19;;;9.26;67.55
21742;BME280;11033;47.490;11.116;2023-02-18T09:18:56;93855.31;;;9.54;67.71
21742;BME280;11033;47.490;11.116;2023-02-18T09:21:22;93862.69;;;9.67;67.03
21742;BME280;11033;47.490;11.116;2023-02-18T09:23:49;93852.78;;;9.93;66.23
21742;BME280;11033;47.490;11.116;2023-02-18T09:26:17;93853.88;;;10.15;65.93
21742;BME280;11033;47.490;11.116;2023-02-18T09:28:45;93847.72;;;10.39;62.92
21742;BME280;11033;47.490;11.116;2023-02-18T09:31:15;93852.91;;;10.63;64.23
21742;BME280;11033;47.490;11.116;2023-02-18T09:33:47;93834.66;;;10.85;63.98
21742;BME280;11033;47.490;11.116;2023-02-18T09:36:13;93837.66;;;11.04;61.32
21742;BME280;11033;47.490;11.116;2023-02-18T09:38:38;93845.16;;;11.38;63.59
21742;BME280;11033;47.490;11.116;2023-02-18T09:41:08;93837.72;;;11.42;62.51
21742;BME280;11033;47.490;11.116;2023-02-18T09:43:41;93831.84;;;11.55;61.10
21742;BME280;11033;47.490;11.116;2023-02-18T09:49:27;93821.56;;;12.27;60.00
21742;BME280;11033;47.490;11.116;2023-02-18T09:51:55;93812.16;;;12.54;58.50
21742;BME280;11033;47.490;11.116;2023-02-18T09:54:21;93792.44;;;12.71;58.29
21742;BME280;11033;47.490;11.116;2023-02-18T09:56:48;93808.69;;;13.04;60.99
21742;BME280;11033;47.490;11.116;2023-02-18T09:59:17;93790.25;;;12.96;59.54
21742;BME280;11033;47.490;11.116;2023-02-18T10:01:44;93794.28;;;13.28;58.72
21742;BME280;11033;47.490;11.116;2023-02-18T10:04:30;93778.75;;;13.68;55.70
21742;BME280;11033;47.490;11.116;2023-02-18T10:07:00;93773.09;;;13.77;55.97
21742;BME280;11033;47.490;11.116;2023-02-18T10:09:31;93773.50;;;14.09;54.94
21742;BME280;11033;47.490;11.116;2023-02-18T10:12:07;93765.59;;;14.56;53.63
21742;BME280;11033;47.490;11.116;2023-02-18T10:14:37;93765.69;;;14.35;54.53
21742;BME280;11033;47.490;11.116;2023-02-18T10:17:03;93773.63;;;14.76;51.46
21742;BME280;11033;47.490;11.116;2023-02-18T10:19:35;93759.22;;;14.99;52.36
21742;BME280;11033;47.490;11.116;2023-02-18T10:22:04;93771.06;;;15.03;49.92
21742;BME280;11033;47.490;11.116;2023-02-18T10:24:33;93749.25;;;15.87;52.75
21742;BME280;11033;47.490;11.116;2023-02-18T10:26:59;93754.16;;;15.90;51.54
21742;BME280;11033;47.490;11.116;2023-02-18T10:29:27;93763.66;;;16.37;48.40
21742;BME280;11033;47.490;11.116;2023-02-18T10:40:44;93742.69;;;17.11;50.98
21742;BME280;11033;47.490;11.116;2023-02-18T10:46:05;93718.56;;;18.06;48.71
21742;BME280;11033;47.490;11.116;2023-02-18T10:48:43;93724.88;;;18.30;46.67
21742;BME280;11033;47.490;11.116;2023-02-18T10:51:16;93726.06;;;18.34;47.61
21742;BME280;11033;47.490;11.116;2023-02-18T10:53:44;93720.75;;;17.91;45.57
21742;BME280;11033;47.490;11.116;2023-02-18T10:59:10;93713.19;;;18.97;44.56
21742;BME280;11033;47.490;11.116;2023-02-18T11:01:36;93697.22;;;19.21;44.63
21742;BME280;11033;47.490;11.116;2023-02-18T11:04:18;93705.97;;;18.68;42.79
21742;BME280;11033;47.490;11.116;2023-02-18T11:06:49;93697.56;;;19.66;45.20
21742;BME280;11033;47.490;11.116;2023-02-18T11:09:40;93684.91;;;19.85;44.31
21742;BME280;11033;47.490;11.116;2023-02-18T11:12:16;93687.94;;;19.88;41.85
21742;BME280;11033;47.490;11.116;2023-02-18T11:14:46;93674.84;;;20.39;40.96
21742;BME280;11033;47.490;11.116;2023-02-18T11:17:19;93662.31;;;21.41;43.01
21742;BME280;11033;47.490;11.116;2023-02-18T11:19:59;93649.97;;;21.40;38.59
21742;BME280;11033;47.490;11.116;2023-02-18T11:22:31;93651.44;;;21.31;38.82
21742;BME280;11033;47.490;11.116;2023-02-18T11:25:05;93643.00;;;22.94;41.27
21742;BME280;11033;47.490;11.116;2023-02-18T11:27:52;93635.91;;;23.42;35.88
21742;BME280;11033;47.490;11.116;2023-02-18T11:30:22;93634.22;;;23.62;35.61
21742;BME280;11033;47.490;11.116;2023-02-18T11:32:54;93621.97;;;24.24;32.57
21742;BME280;11033;47.490;11.116;2023-02-18T11:35:23;93614.03;;;24.54;34.09
21742;BME280;11033;47.490;11.116;2023-02-18T11:37:50;93617.41;;;24.97;31.87
21742;BME280;11033;47.490;11.116;2023-02-18T11:40:25;93605.00;;;24.86;34.84
21742;BME280;11033;47.490;11.116;2023-02-18T11:43:02;93608.13;;;24.57;27.34
21742;BME280;11033;47.490;11.116;2023-02-18T11:45:31;93601.66;;;24.53;30.72
21742;BME280;11033;47.490;11.116;2023-02-18T11:48:00;93582.94;;;24.99;30.06
21742;BME280;11033;47.490;11.116;2023-02-18T11:50:30;93585.13;;;25.53;30.12
21742;BME280;11033;47.490;11.116;2023-02-18T11:52:56;93572.69;;;25.16;31.58
21742;BME280;11033;47.490;11.116;2023-02-18T11:55:27;93571.63;;;25.73;30.44
21742;BME280;11033;47.490;11.116;2023-02-18T12:00:34;93559.69;;;26.00;30.96
21742;BME280;11033;47.490;11.116;2023-02-18T12:03:01;93551.81;;;26.83;30.62
21742;BME280;11033;47.490;11.116;2023-02-18T12:05:31;93547.97;;;27.33;29.32
21742;BME280;11033;47.490;11.116;2023-02-18T12:08:06;93538.69;;;25.61;25.62
21742;BME280;11033;47.490;11.116;2023-02-18T12:10:48;93530.13;;;24.15;27.08
21742;BME280;11033;47.490;11.116;2023-02-18T12:32:22;93508.22;;;25.66;23.07
21742;BME280;11033;47.490;11.116;2023-02-18T12:42:48;93500.25;;;27.08;21.82
21742;BME280;11033;47.490;11.116;2023-02-18T12:48:46;93501.72;;;27.88;21.75
21742;BME280;11033;47.490;11.116;2023-02-18T12:51:24;93493.53;;;27.93;23.23
21742;BME280;11033;47.490;11.116;2023-02-18T12:54:03;93481.66;;;28.13;21.07
21742;BME280;11033;47.490;11.116;2023-02-18T12:56:36;93499.47;;;28.42;22.15
21742;BME280;11033;47.490;11.116;2023-02-18T13:01:37;93486.50;;;26.61;21.05
21742;BME280;11033;47.490;11.116;2023-02-18T13:10:08;93485.34;;;28.22;22.13
21742;BME280;11033;47.490;11.116;2023-02-18T13:12:59;93475.53;;;26.86;21.48
21742;BME280;11033;47.490;11.116;2023-02-18T13:15:45;93489.66;;;27.75;20.10
21742;BME280;11033;47.490;11.116;2023-02-18T13:18:21;93485.00;;;27.52;20.15
21742;BME280;11033;47.490;11.116;2023-02-18T13:20:51;93466.69;;;27.96;20.60
21742;BME280;11033;47.490;11.116;2023-02-18T13:23:22;93479.25;;;27.58;21.49
21742;BME280;11033;47.490;11.116;2023-02-18T13:25:51;93489.88;;;26.37;20.60
21742;BME280;11033;47.490;11.116;2023-02-18T13:34:23;93467.94;;;24.17;21.62
21742;BME280;11033;47.490;11.116;2023-02-18T13:37:17;93455.06;;;24.44;21.74
21742;BME280;11033;47.490;11.116;2023-02-18T13:39:48;93446.47;;;24.52;21.12
21742;BME280;11033;47.490;11.116;2023-02-18T13:52:46;93460.56;;;22.70;23.02
21742;BME280;11033;47.490;11.116;2023-02-18T13:55:20;93455.19;;;21.90;22.89
21742;BME280;11033;47.490;11.116;2023-02-18T13:57:48;93442.59;;;21.08;23.64
21742;BME280;11033;47.490;11.116;2023-02-18T14:00:33;93438.81;;;22.40;23.64
21742;BME280;11033;47.490;11.116;2023-02-18T14:03:04;93447.28;;;21.78;23.71
21742;BME280;11033;47.490;11.116;2023-02-18T14:05:42;93450.13;;;21.93;23.75
21742;BME280;11033;47.490;11.116;2023-02-18T14:08:29;93460.28;;;20.58;23.29
21742;BME280;11033;47.490;11.116;2023-02-18T14:16:05;93465.03;;;21.84;23.05
21742;BME280;11033;47.490;11.116;2023-02-18T14:31:32;93443.69;;;24.12;22.02
21742;BME280;11033;47.490;11.116;2023-02-18T14:36:51;93445.16;;;25.11;20.82
21742;BME280;11033;47.490;11.116;2023-02-18T14:39:43;93453.34;;;25.85;21.72
21742;BME280;11033;47.490;11.116;2023-02-18T14:45:02;93453.50;;;25.19;19.46
21742;BME280;11033;47.490;11.116;2023-02-18T14:50:09;93452.06;;;25.63;19.69
21742;BME280;11033;47.490;11.116;2023-02-18T14:52:44;93451.47;;;25.86;20.20
21742;BME280;11033;47.490;11.116;2023-02-18T14:55:21;93441.88;;;25.29;21.10
21742;BME280;11033;47.490;11.116;2023-02-18T14:58:01;93456.13;;;25.55;19.39
21742;BME280;11033;47.490;11.116;2023-02-18T15:00:31;93452.66;;;26.24;19.17
21742;BME280;11033;47.490;11.116;2023-02-18T15:02:59;93440.84;;;26.10;19.56
21742;BME280;11033;47.490;11.116;2023-02-18T15:05:27;93445.81;;;26.42;20.02
21742;BME280;11033;47.490;11.116;2023-02-18T15:08:23;93442.63;;;26.30;19.77
21742;BME280;11033;47.490;11.116;2023-02-18T15:10:59;93452.38;;;26.75;18.91
21742;BME280;11033;47.490;11.116;2023-02-18T15:13:44;93448.00;;;26.79;20.49
21742;BME280;11033;47.490;11.116;2023-02-18T15:16:15;93457.00;;;24.89;18.56
21742;BME280;11033;47.490;11.116;2023-02-18T15:18:50;93463.72;;;25.33;19.27
21742;BME280;11033;47.490;11.116;2023-02-18T15:21:32;93463.13;;;25.61;20.24
21742;BME280;11033;47.490;11.116;2023-02-18T15:24:08;93473.94;;;24.64;19.58
21742;BME280;11033;47.490;11.116;2023-02-18T15:26:41;93464.22;;;24.33;20.12